createdAt,value
2023-03-22T00:00:17.697Z,89.00
2023-03-22T00:02:47.894Z,88.96
2023-03-22T00:05:16.804Z,89.01
2023-03-22T00:07:45.516Z,89.23
2023-03-22T00:10:14.282Z,89.18
2023-03-22T00:12:42.919Z,88.91
2023-03-22T00:15:12.735Z,90.23
2023-03-22T00:17:42.178Z,89.46
2023-03-22T00:20:14.914Z,89.51
2023-03-22T00:22:43.639Z,89.25
2023-03-22T00:25:12.340Z,88.81
2023-03-22T00:27:41.291Z,88.86
2023-03-22T00:30:12.700Z,89.03
2023-03-22T00:32:42.896Z,89.38
2023-03-22T00:35:13.602Z,89.21
2023-03-22T00:37:42.420Z,88.52
2023-03-22T00:40:14.015Z,88.71
2023-03-22T00:42:43.311Z,88.45
2023-03-22T00:45:14.046Z,88.31
2023-03-22T00:47:42.770Z,89.15
2023-03-22T00:50:13.101Z,88.39
2023-03-22T00:52:41.769Z,88.69
2023-03-22T00:55:10.823Z,89.07
2023-03-22T00:57:39.746Z,89.75
2023-03-22T01:00:13.744Z,89.07
2023-03-22T01:02:43.241Z,88.48
2023-03-22T01:05:17.871Z,88.16
2023-03-22T01:07:46.780Z,87.87
2023-03-22T01:10:15.468Z,87.73
2023-03-22T01:12:44.891Z,88.17
2023-03-22T01:15:14.145Z,87.75
2023-03-22T01:17:43.392Z,87.31
2023-03-22T01:20:13.981Z,88.15
2023-03-22T01:22:45.264Z,87.94
2023-03-22T01:25:14.745Z,87.10
2023-03-22T01:27:43.639Z,86.57
2023-03-22T01:30:13.591Z,85.99
2023-03-22T01:32:42.397Z,87.05
2023-03-22T01:35:12.098Z,87.37
2023-03-22T01:37:44.414Z,86.82
2023-03-22T01:40:15.934Z,87.24
2023-03-22T01:42:44.864Z,86.40
2023-03-22T01:45:43.532Z,85.98
2023-03-22T01:48:34.621Z,87.12
2023-03-22T01:51:11.030Z,86.08
2023-03-22T01:53:58.824Z,86.97
2023-03-22T01:56:32.713Z,86.40
2023-03-22T01:59:02.915Z,87.00
2023-03-22T02:01:47.659Z,86.95
2023-03-22T02:04:21.220Z,86.39
2023-03-22T02:06:54.117Z,86.37
2023-03-22T02:09:24.452Z,86.07
2023-03-22T02:12:12.371Z,87.10
2023-03-22T02:15:01.215Z,86.63
2023-03-22T02:18:07.520Z,85.49
2023-03-22T02:21:30.330Z,86.08
2023-03-22T02:24:48.365Z,85.35
2023-03-22T02:28:05.070Z,86.59
2023-03-22T02:31:10.433Z,84.78
2023-03-22T02:34:25.799Z,86.20
2023-03-22T02:37:37.504Z,85.46
2023-03-22T02:40:16.486Z,85.12
2023-03-22T02:42:57.571Z,85.26
2023-03-22T02:45:35.558Z,84.81
2023-03-22T02:48:13.654Z,85.14
2023-03-22T02:50:52.886Z,85.93
2023-03-22T02:53:26.556Z,85.08
2023-03-22T02:56:03.018Z,84.95
2023-03-22T02:58:39.348Z,84.78
2023-03-22T03:01:18.020Z,85.34
2023-03-22T03:03:50.780Z,83.67
2023-03-22T03:06:25.804Z,84.32
2023-03-22T03:08:58.096Z,83.34
2023-03-22T03:11:30.740Z,83.46
2023-03-22T03:14:00.950Z,84.57
2023-03-22T03:16:35.229Z,84.86
2023-03-22T03:19:15.921Z,84.64
2023-03-22T03:21:55.906Z,85.34
2023-03-22T03:24:37.229Z,84.72
2023-03-22T03:27:17.119Z,83.33
2023-03-22T03:29:52.345Z,84.17
2023-03-22T03:32:28.402Z,84.61
2023-03-22T03:35:03.617Z,85.32
2023-03-22T03:37:39.967Z,85.42
2023-03-22T03:40:14.500Z,85.12
2023-03-22T03:42:51.720Z,85.35
2023-03-22T03:45:22.475Z,85.32
2023-03-22T03:47:57.152Z,85.56
2023-03-22T03:50:28.353Z,85.75
2023-03-22T03:52:58.555Z,85.58
2023-03-22T03:55:30.822Z,85.58
2023-03-22T03:58:01.072Z,85.50
2023-03-22T04:00:30.292Z,84.81
2023-03-22T04:03:19.706Z,84.04
2023-03-22T04:06:23.704Z,83.53
2023-03-22T04:08:58.360Z,83.54
2023-03-22T04:11:32.370Z,83.82
2023-03-22T04:14:05.076Z,82.46
2023-03-22T04:16:33.829Z,82.32
2023-03-22T04:19:02.745Z,82.39
2023-03-22T04:21:31.517Z,83.25
2023-03-22T04:24:02.986Z,82.84
2023-03-22T04:26:37.097Z,83.33
2023-03-22T04:29:27.512Z,82.77
2023-03-22T04:32:02.573Z,82.99
2023-03-22T04:34:43.788Z,83.60
2023-03-22T04:37:16.144Z,83.41
2023-03-22T04:39:55.571Z,83.38
2023-03-22T04:42:36.088Z,83.16
2023-03-22T04:45:16.158Z,83.56
2023-03-22T04:47:49.357Z,84.04
2023-03-22T04:50:18.499Z,84.01
2023-03-22T04:52:53.001Z,83.68
2023-03-22T04:55:22.087Z,82.61
2023-03-22T04:57:51.260Z,82.88
2023-03-22T05:00:22.365Z,81.87
2023-03-22T05:02:51.860Z,82.09
2023-03-22T05:05:32.335Z,82.21
2023-03-22T05:08:03.399Z,81.93
2023-03-22T05:10:33.371Z,81.60
2023-03-22T05:13:02.440Z,82.46
2023-03-22T05:15:35.849Z,82.09
2023-03-22T05:18:06.753Z,81.58
2023-03-22T05:20:37.688Z,82.38
2023-03-22T05:23:19.506Z,81.67
2023-03-22T05:25:54.380Z,82.07
2023-03-22T05:28:24.373Z,82.38
2023-03-22T05:31:11.920Z,82.67
2023-03-22T05:33:47.650Z,83.29
2023-03-22T05:36:21.056Z,83.33
2023-03-22T05:39:08.225Z,82.80
2023-03-22T05:41:37.485Z,82.49
2023-03-22T05:44:07.556Z,82.92
2023-03-22T05:46:40.966Z,83.41
2023-03-22T05:49:35.368Z,83.61
2023-03-22T05:52:06.143Z,83.59
2023-03-22T05:54:58.012Z,83.59
2023-03-22T05:57:27.355Z,84.05
2023-03-22T05:59:56.090Z,84.72
2023-03-22T06:02:34.159Z,84.25
2023-03-22T06:05:03.265Z,83.91
2023-03-22T06:07:33.591Z,83.71
2023-03-22T06:10:29.834Z,85.05
2023-03-22T06:12:58.761Z,84.68
2023-03-22T06:15:31.648Z,84.80
2023-03-22T06:18:11.090Z,84.58
2023-03-22T06:20:44.388Z,85.13
2023-03-22T06:23:20.491Z,85.40
2023-03-22T06:25:50.532Z,85.10
2023-03-22T06:28:20.289Z,85.19
2023-03-22T06:30:55.187Z,85.79
2023-03-22T06:33:41.693Z,85.73
2023-03-22T06:36:39.424Z,85.42
2023-03-22T06:39:15.597Z,85.62
2023-03-22T06:41:48.194Z,86.08
2023-03-22T06:44:17.647Z,86.24
2023-03-22T06:46:52.350Z,86.07
2023-03-22T06:49:40.680Z,86.63
2023-03-22T06:52:11.126Z,87.09
2023-03-22T06:54:40.513Z,87.13
2023-03-22T06:57:12.293Z,88.04
2023-03-22T06:59:41.298Z,87.62
2023-03-22T07:02:13.443Z,87.57
2023-03-22T07:04:48.722Z,87.57
2023-03-22T07:07:18.213Z,87.87
2023-03-22T07:09:47.413Z,88.25
2023-03-22T07:12:16.843Z,88.44
2023-03-22T07:14:45.938Z,88.56
2023-03-22T07:17:37.156Z,88.12
2023-03-22T07:20:09.508Z,88.24
2023-03-22T07:25:41.521Z,88.24
2023-03-22T07:28:23.988Z,87.94
2023-03-22T07:31:02.294Z,88.11
2023-03-22T07:33:35.060Z,88.56
2023-03-22T07:36:06.942Z,88.50
2023-03-22T07:38:36.193Z,88.89
2023-03-22T07:41:09.133Z,88.62
2023-03-22T07:44:02.414Z,88.46
2023-03-22T07:46:46.192Z,87.90
2023-03-22T07:49:30.314Z,87.69
2023-03-22T07:52:06.814Z,87.07
2023-03-22T07:54:36.192Z,86.39
2023-03-22T07:57:08.684Z,86.29
2023-03-22T07:59:44.248Z,85.29
2023-03-22T08:02:14.619Z,85.06
2023-03-22T08:04:53.369Z,84.19
2023-03-22T08:07:44.908Z,82.04
2023-03-22T08:10:16.271Z,80.17
2023-03-22T08:12:45.618Z,76.76
2023-03-22T08:15:22.544Z,77.23
2023-03-22T08:17:51.688Z,77.20
2023-03-22T08:20:30.632Z,74.04
2023-03-22T08:23:05.655Z,71.58
2023-03-22T08:26:03.518Z,72.85
2023-03-22T08:28:33.884Z,72.46
2023-03-22T08:31:02.843Z,68.60
2023-03-22T08:33:31.590Z,69.02
2023-03-22T08:36:10.089Z,70.55
2023-03-22T08:38:46.980Z,67.53
2023-03-22T08:41:18.706Z,67.86
2023-03-22T08:43:47.754Z,69.04
2023-03-22T08:46:18.132Z,67.04
2023-03-22T08:48:51.875Z,65.83
2023-03-22T08:51:28.362Z,67.68
2023-03-22T08:54:11.214Z,66.73
2023-03-22T08:57:10.369Z,65.30
2023-03-22T08:59:53.471Z,65.88
2023-03-22T09:02:27.640Z,64.92
2023-03-22T09:04:57.857Z,64.85
2023-03-22T09:07:27.521Z,62.14
2023-03-22T09:10:13.828Z,64.07
2023-03-22T09:12:45.364Z,65.57
2023-03-22T09:15:14.074Z,62.89
2023-03-22T09:17:47.277Z,61.43
2023-03-22T09:20:16.489Z,62.50
2023-03-22T09:22:47.969Z,61.80
2023-03-22T09:25:21.378Z,60.84
2023-03-22T09:27:51.622Z,60.03
2023-03-22T09:30:20.615Z,60.05
2023-03-22T09:32:49.407Z,61.46
2023-03-22T09:35:19.382Z,62.86
2023-03-22T09:38:03.749Z,59.28
2023-03-22T09:40:36.381Z,56.94
2023-03-22T09:43:10.435Z,57.22
2023-03-22T09:45:45.072Z,54.38
2023-03-22T09:48:19.460Z,54.26
2023-03-22T09:50:52.795Z,55.49
2023-03-22T09:53:25.791Z,51.68
2023-03-22T09:56:03.220Z,51.11
2023-03-22T09:58:39.696Z,52.35
2023-03-22T10:01:35.376Z,53.63
2023-03-22T10:04:31.233Z,52.68
2023-03-22T10:07:10.841Z,51.86
2023-03-22T10:09:55.484Z,53.27
2023-03-22T10:12:30.721Z,52.46
2023-03-22T10:15:07.834Z,52.36
2023-03-22T10:17:38.785Z,54.40
2023-03-22T10:20:20.543Z,51.16
2023-03-22T10:22:53.341Z,50.22
2023-03-22T10:25:34.189Z,51.14
2023-03-22T10:28:16.624Z,51.23
2023-03-22T10:30:53.486Z,51.45
2023-03-22T10:33:50.224Z,51.44
2023-03-22T10:36:25.565Z,49.12
2023-03-22T10:39:02.005Z,49.62
2023-03-22T10:41:33.646Z,50.09
2023-03-22T10:44:07.389Z,49.38
2023-03-22T10:46:43.072Z,52.12
2023-03-22T10:49:24.264Z,51.74
2023-03-22T10:51:57.889Z,48.61
2023-03-22T10:54:27.622Z,48.67
2023-03-22T10:56:56.574Z,46.77
2023-03-22T10:59:47.345Z,44.80
2023-03-22T11:02:22.861Z,46.29
2023-03-22T11:04:54.902Z,45.32
2023-03-22T11:07:36.603Z,44.80
2023-03-22T11:10:32.859Z,42.44
2023-03-22T11:13:23.183Z,41.72
2023-03-22T11:15:59.972Z,39.55
2023-03-22T11:18:34.000Z,41.07
2023-03-22T11:21:09.289Z,38.61
2023-03-22T11:23:44.217Z,37.46
2023-03-22T11:26:15.562Z,37.94
2023-03-22T11:28:50.452Z,36.53
2023-03-22T11:31:22.330Z,35.19
2023-03-22T11:33:59.662Z,34.35
2023-03-22T11:36:29.780Z,34.78
2023-03-22T11:39:01.309Z,34.96
2023-03-22T11:41:32.121Z,35.36
2023-03-22T11:44:06.725Z,34.19
2023-03-22T11:46:38.804Z,33.55
2023-03-22T11:49:15.703Z,34.85
2023-03-22T11:51:45.767Z,32.81
2023-03-22T11:54:28.496Z,34.17
2023-03-22T11:57:02.150Z,34.35
2023-03-22T11:59:40.074Z,34.20
2023-03-22T12:02:22.677Z,33.79
2023-03-22T12:05:01.899Z,33.60
2023-03-22T12:07:34.118Z,32.81
2023-03-22T12:10:12.687Z,33.44
2023-03-22T12:12:50.744Z,32.64
2023-03-22T12:15:24.938Z,33.64
2023-03-22T12:18:07.730Z,32.87
2023-03-22T12:20:46.870Z,33.11
2023-03-22T12:23:19.523Z,32.43
2023-03-22T12:25:54.680Z,31.63
2023-03-22T12:28:32.287Z,31.62
2023-03-22T12:31:03.911Z,31.71
2023-03-22T12:33:44.189Z,32.27
2023-03-22T12:36:19.953Z,32.21
2023-03-22T12:38:53.709Z,32.99
2023-03-22T12:41:32.660Z,33.18
2023-03-22T12:44:10.838Z,32.68
2023-03-22T12:46:51.383Z,32.46
2023-03-22T12:49:31.292Z,32.28
2023-03-22T12:52:15.976Z,32.82
2023-03-22T12:54:48.570Z,32.92
2023-03-22T12:57:18.647Z,34.39
2023-03-22T12:59:52.963Z,34.46
2023-03-22T13:02:32.169Z,35.31
2023-03-22T13:05:05.215Z,36.06
2023-03-22T13:07:41.150Z,36.46
2023-03-22T13:11:01.435Z,36.15
2023-03-22T13:13:50.087Z,36.40
2023-03-22T13:16:24.785Z,34.72
2023-03-22T13:19:04.445Z,35.44
2023-03-22T13:21:37.702Z,35.39
2023-03-22T13:24:24.073Z,36.63
2023-03-22T13:27:00.260Z,36.02
2023-03-22T13:29:39.033Z,35.55
2023-03-22T13:32:30.107Z,36.79
2023-03-22T13:34:59.121Z,38.34
2023-03-22T13:37:37.020Z,37.69
2023-03-22T13:40:15.006Z,36.74
2023-03-22T13:42:44.330Z,35.87
2023-03-22T13:45:33.794Z,36.70
2023-03-22T13:48:12.995Z,36.22
2023-03-22T13:50:42.933Z,37.26
2023-03-22T13:53:22.661Z,36.49
2023-03-22T13:57:12.563Z,37.11
2023-03-22T14:00:12.017Z,36.56
2023-03-22T14:02:45.651Z,37.62
2023-03-22T14:05:18.781Z,37.58
2023-03-22T14:07:54.526Z,37.63
2023-03-22T14:10:32.366Z,38.35
2023-03-22T14:13:33.813Z,39.60
2023-03-22T14:16:16.199Z,39.66
2023-03-22T14:18:49.827Z,38.70
2023-03-22T14:21:30.846Z,37.89
